Time;durP1;ratioP1;P1;durP2;ratioP2;P2;SDS_P1;SDS_P2;PMS_P1;PMS_P2;Temp;Humidity;BMP_temperature;BMP_pressure;BME280_temperature;BME280_humidity;BME280_pressure;Samples;Min_cycle;Max_cycle;Signal;HPM_P1;HPM_P2
2022/02/23 00:01:37;;;;;;;19.63;13.30;;;;;;;;;;10277917;28;20501;-55
2022/02/23 00:06:36;;;;;;;12.55;10.93;;;;;;;;;;10277108;28;20510;-55
2022/02/23 00:11:34;;;;;;;13.70;10.30;;;;;;;;;;10273270;28;20069;-57
2022/02/23 00:16:32;;;;;;;16.95;12.10;;;;;;;;;;10269253;28;20516;-54
2022/02/23 00:21:32;;;;;;;12.45;10.07;;;;;;;;;;10270779;28;20472;-53
2022/02/23 00:26:31;;;;;;;15.20;10.30;;;;;;;;;;10272658;28;20087;-54
2022/02/23 00:31:29;;;;;;;13.20;10.35;;;;;;;;;;10272990;28;20072;-55
2022/02/23 00:36:28;;;;;;;10.88;9.10;;;;;;;;;;10271827;28;20072;-53
2022/02/23 00:41:27;;;;;;;13.30;11.35;;;;;;;;;;10271113;28;20467;-56
2022/02/23 00:46:26;;;;;;;13.70;10.40;;;;;;;;;;10271689;28;20081;-55
2022/02/23 00:51:24;;;;;;;20.30;14.07;;;;;;;;;;10271579;28;20064;-53
2022/02/23 00:56:22;;;;;;;13.00;10.70;;;;;;;;;;10269756;28;20497;-55
2022/02/23 01:01:24;;;;;;;17.55;12.20;;;;;;;;;;10270041;28;20084;-54
2022/02/23 01:06:23;;;;;;;14.23;10.68;;;;;;;;;;10273510;28;20068;-56
2022/02/23 01:11:21;;;;;;;18.80;12.40;;;;;;;;;;10274805;28;20095;-56
2022/02/23 01:16:20;;;;;;;20.35;13.13;;;;;;;;;;10272371;28;20072;-55
2022/02/23 01:21:19;;;;;;;15.00;10.60;;;;;;;;;;10270443;28;20511;-57
2022/02/23 01:26:18;;;;;;;27.27;16.95;;;;;;;;;;10269803;28;20107;-54
2022/02/23 01:31:16;;;;;;;13.63;11.30;;;;;;;;;;10278440;28;20084;-54
2022/02/23 01:36:14;;;;;;;16.10;11.48;;;;;;;;;;10271752;28;20049;-56
2022/02/23 01:41:17;;;;;;;9.30;7.68;;;;;;;;;;10269347;28;20132;-58
2022/02/23 01:46:16;;;;;;;9.02;8.07;;;;;;;;;;10282938;28;20093;-56
2022/02/23 01:51:14;;;;;;;13.52;9.60;;;;;;;;;;10270113;28;20066;-56
2022/02/23 01:56:14;;;;;;;10.27;8.63;;;;;;;;;;10272313;28;20052;-52
2022/02/23 02:01:12;;;;;;;13.65;11.23;;;;;;;;;;10268194;28;20045;-55
2022/02/23 02:06:11;;;;;;;11.25;9.02;;;;;;;;;;10271329;28;20421;-53
2022/02/23 02:11:09;;;;;;;12.05;8.73;;;;;;;;;;10271767;28;20080;-56
2022/02/23 02:16:09;;;;;;;12.68;8.40;;;;;;;;;;10270332;28;20466;-56
2022/02/23 02:21:07;;;;;;;9.77;8.68;;;;;;;;;;10272665;28;20045;-56
2022/02/23 02:26:07;;;;;;;11.77;9.23;;;;;;;;;;10278003;28;20383;-56
2022/02/23 02:31:05;;;;;;;9.63;8.50;;;;;;;;;;10280895;28;20080;-56
2022/02/23 02:36:04;;;;;;;8.88;7.97;;;;;;;;;;10281722;28;20052;-55
2022/02/23 02:41:02;;;;;;;8.80;7.85;;;;;;;;;;10280675;28;20120;-55
2022/02/23 02:46:02;;;;;;;10.30;8.80;;;;;;;;;;10271487;28;20161;-57
2022/02/23 02:51:00;;;;;;;9.23;8.27;;;;;;;;;;10276987;28;20085;-54
2022/02/23 02:55:58;;;;;;;10.63;8.15;;;;;;;;;;10280757;28;20493;-55
2022/02/23 03:00:57;;;;;;;9.70;8.75;;;;;;;;;;10279815;28;20041;-57
2022/02/23 03:05:58;;;;;;;11.55;10.20;;;;;;;;;;10279747;28;20087;-57
2022/02/23 03:10:57;;;;;;;9.90;8.68;;;;;;;;;;10276541;28;20079;-56
2022/02/23 03:15:55;;;;;;;12.40;9.48;;;;;;;;;;10274166;28;20076;-57
2022/02/23 03:20:53;;;;;;;14.23;12.40;;;;;;;;;;10279792;28;20087;-55
2022/02/23 03:25:53;;;;;;;40.53;25.92;;;;;;;;;;10279615;28;20111;-56
2022/02/23 03:30:51;;;;;;;55.58;30.80;;;;;;;;;;10279959;28;20095;-57
2022/02/23 03:35:49;;;;;;;27.27;16.77;;;;;;;;;;10272101;28;20095;-56
2022/02/23 03:40:48;;;;;;;61.80;32.85;;;;;;;;;;10274869;28;20072;-56
2022/02/23 03:45:48;;;;;;;40.05;24.20;;;;;;;;;;10275214;28;20179;-57
2022/02/23 03:50:46;;;;;;;48.22;30.25;;;;;;;;;;10277730;28;20536;-52
2022/02/23 03:55:45;;;;;;;35.90;24.58;;;;;;;;;;10277757;28;20069;-56
2022/02/23 04:00:43;;;;;;;49.15;31.73;;;;;;;;;;10271849;28;20510;-54
2022/02/23 04:05:43;;;;;;;21.42;15.68;;;;;;;;;;10270730;28;20072;-57
2022/02/23 04:10:42;;;;;;;11.00;9.90;;;;;;;;;;10277884;28;20079;-57
2022/02/23 04:15:40;;;;;;;12.63;9.20;;;;;;;;;;10277696;28;20049;-55
2022/02/23 04:20:38;;;;;;;12.02;8.50;;;;;;;;;;10277549;28;20073;-55
2022/02/23 04:25:38;;;;;;;11.88;9.05;;;;;;;;;;10270689;28;20496;-56
2022/02/23 04:30:36;;;;;;;10.80;8.40;;;;;;;;;;10277290;28;20079;-55
2022/02/23 04:35:34;;;;;;;13.25;10.10;;;;;;;;;;10277055;28;20061;-56
2022/02/23 04:40:33;;;;;;;14.93;12.82;;;;;;;;;;10266520;28;20081;-55
2022/02/23 04:45:32;;;;;;;25.52;19.17;;;;;;;;;;10268881;28;20077;-56
2022/02/23 04:50:31;;;;;;;20.65;17.33;;;;;;;;;;10267602;28;20322;-52
2022/02/23 04:55:29;;;;;;;20.35;16.92;;;;;;;;;;10263497;28;20072;-53
2022/02/23 05:00:27;;;;;;;24.25;17.73;;;;;;;;;;10267527;28;20104;-56
2022/02/23 05:05:30;;;;;;;22.15;17.83;;;;;;;;;;10265820;28;20073;-56
2022/02/23 05:10:29;;;;;;;25.80;18.80;;;;;;;;;;10266110;28;20510;-52
2022/02/23 05:15:27;;;;;;;26.77;20.05;;;;;;;;;;10269807;28;20072;-56
2022/02/23 05:20:27;;;;;;;33.50;22.95;;;;;;;;;;10273390;28;20065;-58
2022/02/23 05:25:27;;;;;;;35.10;20.17;;;;;;;;;;10267197;28;20114;-52
2022/02/23 05:30:26;;;;;;;26.20;19.67;;;;;;;;;;10261664;28;21059;-54
2022/02/23 05:35:24;;;;;;;22.15;17.25;;;;;;;;;;10258985;28;20084;-54
2022/02/23 05:40:22;;;;;;;19.98;16.55;;;;;;;;;;10240979;28;20072;-56
2022/02/23 05:45:22;;;;;;;18.98;16.05;;;;;;;;;;10263268;28;20068;-56
2022/02/23 05:50:21;;;;;;;18.75;14.57;;;;;;;;;;10253220;28;20079;-55
2022/02/23 05:55:19;;;;;;;14.63;13.02;;;;;;;;;;10235819;28;20116;-56
2022/02/23 06:00:18;;;;;;;16.35;13.60;;;;;;;;;;10255428;28;20073;-57
2022/02/23 06:05:17;;;;;;;22.20;19.45;;;;;;;;;;10255493;28;20069;-56
2022/02/23 06:10:16;;;;;;;99.72;76.78;;;;;;;;;;10259119;28;20065;-56
2022/02/23 06:15:14;;;;;;;40.08;33.00;;;;;;;;;;10262489;28;20077;-56
2022/02/23 06:20:12;;;;;;;30.83;22.52;;;;;;;;;;10245289;28;20073;-54
2022/02/23 06:25:12;;;;;;;25.85;21.10;;;;;;;;;;10243003;28;20082;-52
2022/02/23 06:30:10;;;;;;;23.90;21.35;;;;;;;;;;10240315;28;20069;-55
2022/02/23 06:35:09;;;;;;;20.17;17.98;;;;;;;;;;10243359;28;20072;-55
2022/02/23 06:40:08;;;;;;;25.33;21.58;;;;;;;;;;10241725;28;20079;-55
2022/02/23 06:45:09;;;;;;;22.50;19.90;;;;;;;;;;10266023;28;20080;-54
2022/02/23 06:50:08;;;;;;;25.55;19.40;;;;;;;;;;10271814;28;20087;-55
2022/02/23 06:55:07;;;;;;;26.08;19.60;;;;;;;;;;10258724;28;20072;-55
2022/02/23 07:00:06;;;;;;;49.65;38.75;;;;;;;;;;10244394;28;20064;-55
2022/02/23 07:05:07;;;;;;;24.52;18.58;;;;;;;;;;10250270;28;20068;-56
2022/02/23 07:10:09;;;;;;;18.33;14.63;;;;;;;;;;10266774;28;20103;-58
2022/02/23 07:15:08;;;;;;;17.38;14.27;;;;;;;;;;10263056;28;20141;-56
2022/02/23 07:20:09;;;;;;;19.92;17.20;;;;;;;;;;10272523;28;20078;-59
2022/02/23 07:25:08;;;;;;;31.48;27.42;;;;;;;;;;10266017;28;20130;-56
2022/02/23 07:30:08;;;;;;;46.17;32.88;;;;;;;;;;10273360;28;20493;-55
2022/02/23 07:35:11;;;;;;;27.90;20.80;;;;;;;;;;10266331;28;20076;-57
2022/02/23 07:40:11;;;;;;;25.30;18.55;;;;;;;;;;10272498;28;20069;-57
2022/02/23 07:45:30;;;;;;;24.73;18.50;;;;;;;;;;10273575;28;20087;-56
2022/02/23 07:50:31;;;;;;;22.38;18.50;;;;;;;;;;10278580;28;20069;-56
2022/02/23 07:55:29;;;;;;;21.63;18.88;;;;;;;;;;10278112;28;20091;-57
2022/02/23 08:00:28;;;;;;;35.10;30.90;;;;;;;;;;10278466;28;20116;-56
2022/02/23 08:05:26;;;;;;;28.15;20.70;;;;;;;;;;10271788;28;20306;-56
2022/02/23 08:10:27;;;;;;;27.77;23.52;;;;;;;;;;10272828;28;20073;-56
2022/02/23 08:20:47;;;;;;;23.50;16.70;;;;;;;;;;10257618;28;20088;-56
2022/02/23 08:25:47;;;;;;;24.50;18.08;;;;;;;;;;10269628;28;20497;-57
2022/02/23 08:30:47;;;;;;;18.95;15.07;;;;;;;;;;10272589;28;20136;-56
2022/02/23 08:35:45;;;;;;;18.83;14.80;;;;;;;;;;10270026;28;20084;-55
2022/02/23 08:40:44;;;;;;;19.42;15.85;;;;;;;;;;10271953;28;20079;-56
2022/02/23 08:45:44;;;;;;;21.48;17.60;;;;;;;;;;10271572;28;20100;-57
2022/02/23 08:50:42;;;;;;;19.10;16.42;;;;;;;;;;10271768;28;20490;-56
2022/02/23 08:55:40;;;;;;;22.05;17.95;;;;;;;;;;10271772;28;20072;-55
2022/02/23 09:00:39;;;;;;;21.27;16.30;;;;;;;;;;10268446;28;20076;-56
2022/02/23 09:05:38;;;;;;;26.92;19.67;;;;;;;;;;10275813;28;20414;-56
2022/02/23 09:10:37;;;;;;;26.52;17.13;;;;;;;;;;10275268;28;20517;-58
2022/02/23 09:15:35;;;;;;;25.58;19.73;;;;;;;;;;10264673;28;20501;-56
2022/02/23 09:20:33;;;;;;;25.55;17.83;;;;;;;;;;10268323;28;20446;-56
2022/02/23 09:25:36;;;;;;;20.90;15.27;;;;;;;;;;10268626;28;20069;-57
2022/02/23 09:30:36;;;;;;;22.30;14.85;;;;;;;;;;10269644;28;20087;-56
2022/02/23 09:35:37;;;;;;;19.05;15.75;;;;;;;;;;10269448;28;20478;-57
2022/02/23 09:40:41;;;;;;;22.60;14.63;;;;;;;;;;10268142;28;20075;-57
2022/02/23 09:45:41;;;;;;;24.75;16.20;;;;;;;;;;10267130;28;20439;-56
2022/02/23 09:50:40;;;;;;;15.05;11.90;;;;;;;;;;10267721;28;20045;-57
2022/02/23 09:55:39;;;;;;;15.93;12.52;;;;;;;;;;10274270;28;20072;-55
2022/02/23 10:00:38;;;;;;;20.20;14.68;;;;;;;;;;10273975;28;20640;-55
2022/02/23 10:05:37;;;;;;;15.57;9.52;;;;;;;;;;10267813;28;20108;-57
2022/02/23 10:10:36;;;;;;;11.40;8.75;;;;;;;;;;10273899;28;20065;-57
2022/02/23 10:15:39;;;;;;;18.55;13.43;;;;;;;;;;10273916;28;20068;-57
2022/02/23 10:20:39;;;;;;;13.93;8.88;;;;;;;;;;10273763;28;20065;-57
2022/02/23 10:25:41;;;;;;;15.82;12.10;;;;;;;;;;10267880;28;20064;-58
2022/02/23 10:30:49;;;;;;;24.55;14.95;;;;;;;;;;10273817;28;20072;-57
2022/02/23 10:35:55;;;;;;;14.77;11.05;;;;;;;;;;10286456;28;20077;-57
2022/02/23 10:40:54;;;;;;;;;;;;;;;;;;10268223;28;20088;-57
2022/02/23 10:46:01;;;;;;;18.08;14.07;;;;;;;;;;10272800;28;19948;-57
2022/02/23 10:51:00;;;;;;;21.27;13.95;;;;;;;;;;10276503;28;20392;-59
2022/02/23 10:55:59;;;;;;;20.52;14.25;;;;;;;;;;10281152;28;20510;-54
2022/02/23 11:01:04;;;;;;;14.55;12.73;;;;;;;;;;10280729;28;20072;-56
2022/02/23 11:06:09;;;;;;;14.20;10.52;;;;;;;;;;10272515;28;20072;-54
2022/02/23 11:11:08;;;;;;;22.08;16.63;;;;;;;;;;10275650;28;20076;-57
2022/02/23 11:16:09;;;;;;;21.02;14.70;;;;;;;;;;10280447;28;20072;-56
2022/02/23 11:21:08;;;;;;;18.35;13.52;;;;;;;;;;10278082;28;20044;-57
2022/02/23 11:26:07;;;;;;;17.58;15.55;;;;;;;;;;10273807;28;20045;-56
2022/02/23 11:31:06;;;;;;;27.05;22.80;;;;;;;;;;10274923;28;20079;-53
2022/02/23 11:36:17;;;;;;;14.60;11.55;;;;;;;;;;10274296;28;20076;-57
2022/02/23 11:41:25;;;;;;;14.93;13.32;;;;;;;;;;10279414;28;20078;-57
2022/02/23 11:46:23;;;;;;;12.98;10.57;;;;;;;;;;10278200;28;20513;-57
2022/02/23 11:51:28;;;;;;;14.80;13.23;;;;;;;;;;10275584;28;20069;-56
2022/02/23 11:56:38;;;;;;;14.20;12.70;;;;;;;;;;10271654;28;20171;-57
2022/02/23 12:01:48;;;;;;;15.68;14.07;;;;;;;;;;10289297;28;20060;-56
2022/02/23 12:07:10;;;;;;;18.55;14.50;;;;;;;;;;10273226;28;20085;-57
2022/02/23 12:12:09;;;;;;;14.25;12.73;;;;;;;;;;10286182;28;20084;-56
2022/02/23 12:17:08;;;;;;;16.38;12.68;;;;;;;;;;10271120;28;20052;-56
2022/02/23 12:22:06;;;;;;;17.20;13.73;;;;;;;;;;10272570;28;20080;-58
2022/02/23 12:27:06;;;;;;;21.67;14.00;;;;;;;;;;10286125;28;20069;-56
2022/02/23 12:32:05;;;;;;;13.07;11.15;;;;;;;;;;10270778;28;20088;-57
2022/02/23 12:37:05;;;;;;;16.83;13.25;;;;;;;;;;10298954;28;20552;-57
2022/02/23 12:42:04;;;;;;;22.63;16.73;;;;;;;;;;10315261;28;20083;-56
2022/02/23 12:47:05;;;;;;;13.57;11.48;;;;;;;;;;10315468;28;20493;-57
2022/02/23 12:52:04;;;;;;;14.85;11.27;;;;;;;;;;10299134;28;20251;-57
2022/02/23 12:57:04;;;;;;;21.42;14.43;;;;;;;;;;10269336;28;20077;-55
2022/02/23 13:02:04;;;;;;;30.67;19.15;;;;;;;;;;10286702;28;20083;-57
2022/02/23 13:07:04;;;;;;;14.45;10.32;;;;;;;;;;10278997;28;20065;-57
2022/02/23 13:12:04;;;;;;;15.80;12.88;;;;;;;;;;10275034;28;20041;-57
2022/02/23 13:17:05;;;;;;;17.05;11.85;;;;;;;;;;10274922;28;20099;-56
2022/02/23 13:22:05;;;;;;;16.33;12.77;;;;;;;;;;10274674;28;20566;-56
2022/02/23 13:27:04;;;;;;;13.35;11.40;;;;;;;;;;10269710;28;20076;-56
2022/02/23 13:32:05;;;;;;;15.90;11.77;;;;;;;;;;10273880;28;20497;-57
2022/02/23 13:37:13;;;;;;;14.52;11.48;;;;;;;;;;10274472;28;20080;-56
2022/02/23 13:42:14;;;;;;;18.35;13.68;;;;;;;;;;10274240;28;20147;-56
2022/02/23 13:47:14;;;;;;;18.50;14.70;;;;;;;;;;10267028;28;20068;-57
2022/02/23 13:52:12;;;;;;;21.33;14.63;;;;;;;;;;10268928;28;20547;-57
2022/02/23 13:57:13;;;;;;;23.15;18.35;;;;;;;;;;10282740;28;20076;-57
2022/02/23 14:02:26;;;;;;;26.58;19.90;;;;;;;;;;10270304;28;20069;-57
2022/02/23 14:07:25;;;;;;;32.00;25.40;;;;;;;;;;10269744;28;20069;-55
2022/02/23 14:12:29;;;;;;;108.65;86.63;;;;;;;;;;10263772;28;20052;-57
2022/02/23 14:17:29;;;;;;;32.17;28.75;;;;;;;;;;10269244;28;20065;-59
2022/02/23 14:22:28;;;;;;;29.60;23.48;;;;;;;;;;10277538;28;20491;-55
2022/02/23 14:27:30;;;;;;;47.50;31.33;;;;;;;;;;10275132;28;20179;-57
2022/02/23 14:32:51;;;;;;;22.33;17.05;;;;;;;;;;10269806;28;20091;-55
2022/02/23 14:37:50;;;;;;;17.70;13.20;;;;;;;;;;10290573;28;20088;-57
2022/02/23 14:42:48;;;;;;;25.25;18.48;;;;;;;;;;10282115;28;20067;-54
2022/02/23 14:47:49;;;;;;;21.27;17.00;;;;;;;;;;10280998;28;20084;-56
2022/02/23 14:52:51;;;;;;;22.48;16.23;;;;;;;;;;10272834;28;20077;-55
2022/02/23 14:57:50;;;;;;;89.45;58.70;;;;;;;;;;10274541;28;20086;-56
2022/02/23 15:02:49;;;;;;;28.80;22.35;;;;;;;;;;10271805;28;20069;-57
2022/02/23 15:07:56;;;;;;;41.95;28.50;;;;;;;;;;10272989;28;20511;-57
2022/02/23 15:12:55;;;;;;;36.70;27.67;;;;;;;;;;10273204;28;20079;-55
2022/02/23 15:17:53;;;;;;;37.47;28.38;;;;;;;;;;10273959;28;20071;-54
2022/02/23 15:22:53;;;;;;;52.15;37.53;;;;;;;;;;10273931;28;20100;-56
2022/02/23 15:27:56;;;;;;;70.60;39.92;;;;;;;;;;10271790;28;20077;-55
2022/02/23 15:32:55;;;;;;;66.82;39.88;;;;;;;;;;10270059;28;20068;-57
2022/02/23 15:37:53;;;;;;;91.05;48.50;;;;;;;;;;10271633;28;20060;-56
2022/02/23 15:42:53;;;;;;;49.88;30.90;;;;;;;;;;10271849;28;20042;-56
2022/02/23 15:47:51;;;;;;;79.50;47.50;;;;;;;;;;10272929;28;20485;-55
2022/02/23 15:52:50;;;;;;;61.97;40.72;;;;;;;;;;10278907;28;20102;-54
2022/02/23 15:57:48;;;;;;;50.78;35.53;;;;;;;;;;10277984;28;20083;-58
2022/02/23 16:02:48;;;;;;;41.20;30.42;;;;;;;;;;10270134;28;20077;-57
2022/02/23 16:07:47;;;;;;;47.88;34.30;;;;;;;;;;10279338;28;20117;-56
2022/02/23 16:12:45;;;;;;;55.92;33.47;;;;;;;;;;10277449;28;20505;-55
2022/02/23 16:17:43;;;;;;;55.33;37.70;;;;;;;;;;10277100;28;20087;-56
2022/02/23 16:22:59;;;;;;;28.25;22.65;;;;;;;;;;10277076;28;20115;-56
2022/02/23 16:27:57;;;;;;;63.55;40.58;;;;;;;;;;10268959;28;20061;-54
2022/02/23 16:32:55;;;;;;;73.45;49.88;;;;;;;;;;10277552;28;20077;-55
2022/02/23 16:37:54;;;;;;;97.60;58.92;;;;;;;;;;10276442;28;20490;-56
2022/02/23 16:42:57;;;;;;;137.38;79.93;;;;;;;;;;10267804;28;20514;-55
2022/02/23 16:47:57;;;;;;;91.05;55.75;;;;;;;;;;10270532;28;20076;-56
2022/02/23 16:52:56;;;;;;;63.35;41.30;;;;;;;;;;10267793;28;20069;-56
2022/02/23 16:57:54;;;;;;;152.45;88.00;;;;;;;;;;10272442;28;20072;-56
2022/02/23 17:02:54;;;;;;;97.40;64.50;;;;;;;;;;10275917;28;20064;-56
2022/02/23 17:07:52;;;;;;;89.00;57.85;;;;;;;;;;10275710;28;20087;-55
2022/02/23 17:12:51;;;;;;;49.13;35.78;;;;;;;;;;10275289;28;20072;-56
2022/02/23 17:17:50;;;;;;;43.63;31.23;;;;;;;;;;10266729;28;20084;-57
2022/02/23 17:22:50;;;;;;;36.88;27.70;;;;;;;;;;10269522;28;20459;-57
2022/02/23 17:27:48;;;;;;;30.25;25.92;;;;;;;;;;10275679;28;20522;-57
2022/02/23 17:32:47;;;;;;;28.88;23.40;;;;;;;;;;10274918;28;20091;-56
2022/02/23 17:37:45;;;;;;;32.58;25.13;;;;;;;;;;10266975;28;20621;-56
2022/02/23 17:42:45;;;;;;;28.63;21.75;;;;;;;;;;10276836;28;20068;-57
2022/02/23 17:47:43;;;;;;;27.40;19.85;;;;;;;;;;10274400;28;20095;-56
2022/02/23 17:52:41;;;;;;;136.02;66.47;;;;;;;;;;10273668;28;20087;-54
2022/02/23 17:57:39;;;;;;;69.53;58.97;;;;;;;;;;10263091;28;20506;-56
2022/02/23 18:02:39;;;;;;;28.67;25.58;;;;;;;;;;10266394;28;20545;-55
2022/02/23 18:07:58;;;;;;;20.70;18.13;;;;;;;;;;10273574;28;20088;-54
2022/02/23 18:12:56;;;;;;;38.95;33.28;;;;;;;;;;10273654;28;20068;-53
2022/02/23 18:17:56;;;;;;;25.73;22.42;;;;;;;;;;10272806;28;20092;-55
2022/02/23 18:22:55;;;;;;;23.92;20.23;;;;;;;;;;10273502;28;20068;-55
2022/02/23 18:27:54;;;;;;;26.10;22.73;;;;;;;;;;10273015;28;20084;-56
2022/02/23 18:32:52;;;;;;;27.27;22.80;;;;;;;;;;10264848;28;20088;-54
2022/02/23 18:37:52;;;;;;;26.42;20.85;;;;;;;;;;10304473;28;20064;-56
2022/02/23 18:42:50;;;;;;;29.40;21.85;;;;;;;;;;10307522;28;20073;-56
2022/02/23 18:47:49;;;;;;;37.20;30.17;;;;;;;;;;10272552;28;20084;-55
2022/02/23 18:52:48;;;;;;;22.92;19.20;;;;;;;;;;10261879;28;20521;-56
2022/02/23 18:57:47;;;;;;;24.00;20.15;;;;;;;;;;10267801;28;20076;-56
2022/02/23 19:02:47;;;;;;;23.45;18.23;;;;;;;;;;10265013;28;20076;-57
2022/02/23 19:07:46;;;;;;;20.17;15.95;;;;;;;;;;10281659;28;20061;-56
2022/02/23 19:12:45;;;;;;;19.85;16.60;;;;;;;;;;10279554;28;20060;-56
2022/02/23 19:17:45;;;;;;;21.35;19.10;;;;;;;;;;10279294;28;20072;-55
2022/02/23 19:22:43;;;;;;;21.63;16.40;;;;;;;;;;10279407;28;20084;-54
2022/02/23 19:27:42;;;;;;;18.52;15.90;;;;;;;;;;10267934;28;20061;-56
2022/02/23 19:32:40;;;;;;;20.95;17.67;;;;;;;;;;10272681;28;20330;-56
2022/02/23 19:37:42;;;;;;;21.85;18.40;;;;;;;;;;10272965;28;20069;-56
2022/02/23 19:42:41;;;;;;;56.20;37.45;;;;;;;;;;10279043;28;20049;-56
2022/02/23 19:47:39;;;;;;;29.77;21.85;;;;;;;;;;10275950;28;20143;-56
2022/02/23 19:52:38;;;;;;;24.05;19.00;;;;;;;;;;10264913;28;20483;-56
2022/02/23 19:57:38;;;;;;;19.67;16.27;;;;;;;;;;10281070;28;20083;-56
2022/02/23 20:02:37;;;;;;;21.13;15.45;;;;;;;;;;10277954;28;20049;-56
2022/02/23 20:07:36;;;;;;;18.80;15.73;;;;;;;;;;10277940;28;20475;-53
2022/02/23 20:12:34;;;;;;;21.33;17.52;;;;;;;;;;10267800;28;20156;-55
2022/02/23 20:17:34;;;;;;;23.42;16.95;;;;;;;;;;10270524;28;20077;-54
2022/02/23 20:22:37;;;;;;;23.20;18.13;;;;;;;;;;10266250;28;20080;-55
2022/02/23 20:27:35;;;;;;;24.90;20.25;;;;;;;;;;10268616;28;20073;-55
2022/02/23 20:32:35;;;;;;;26.90;20.17;;;;;;;;;;10305781;28;20067;-57
2022/02/23 20:37:34;;;;;;;48.08;28.08;;;;;;;;;;10315876;28;20076;-56
2022/02/23 20:42:33;;;;;;;41.80;23.92;;;;;;;;;;10315061;28;20071;-57
2022/02/23 20:47:31;;;;;;;25.85;16.17;;;;;;;;;;10291810;28;20100;-57
2022/02/23 20:52:31;;;;;;;23.73;15.25;;;;;;;;;;10282827;28;20287;-55
2022/02/23 20:57:32;;;;;;;38.03;19.95;;;;;;;;;;10270614;28;20069;-57
2022/02/23 21:02:31;;;;;;;31.77;16.70;;;;;;;;;;10259836;28;20435;-55
2022/02/23 21:07:31;;;;;;;32.00;16.60;;;;;;;;;;10269424;28;20096;-55
2022/02/23 21:12:29;;;;;;;23.75;13.15;;;;;;;;;;10270932;28;20081;-56
2022/02/23 21:17:27;;;;;;;22.98;12.48;;;;;;;;;;10273734;28;20096;-56
2022/02/23 21:22:25;;;;;;;18.33;9.73;;;;;;;;;;10270256;28;20087;-57
2022/02/23 21:27:25;;;;;;;18.98;11.13;;;;;;;;;;10267937;28;20081;-56
2022/02/23 21:32:23;;;;;;;27.90;13.30;;;;;;;;;;10268654;28;20069;-55
2022/02/23 21:37:22;;;;;;;22.17;11.57;;;;;;;;;;10269543;28;20083;-57
2022/02/23 21:42:20;;;;;;;25.33;10.77;;;;;;;;;;10283537;28;20089;-56
2022/02/23 21:47:20;;;;;;;24.08;11.68;;;;;;;;;;10272460;28;20065;-57
2022/02/23 21:52:18;;;;;;;25.42;11.27;;;;;;;;;;10274043;28;20044;-56
2022/02/23 21:57:16;;;;;;;25.10;12.07;;;;;;;;;;10273737;28;20072;-56
2022/02/23 22:02:15;;;;;;;25.80;10.82;;;;;;;;;;10267009;28;20099;-53
2022/02/23 22:07:15;;;;;;;24.65;12.65;;;;;;;;;;10266723;28;20077;-54
2022/02/23 22:12:13;;;;;;;33.75;16.73;;;;;;;;;;10274660;28;20053;-57
2022/02/23 22:17:11;;;;;;;26.65;15.15;;;;;;;;;;10269897;28;20075;-54
2022/02/23 22:22:10;;;;;;;17.83;9.35;;;;;;;;;;10252478;28;20064;-55
2022/02/23 22:27:09;;;;;;;39.75;21.42;;;;;;;;;;10256666;28;20068;-54
2022/02/23 22:32:08;;;;;;;15.38;10.90;;;;;;;;;;10240530;28;20076;-55
2022/02/23 22:37:06;;;;;;;18.15;13.23;;;;;;;;;;10265311;28;20519;-56
2022/02/23 22:42:04;;;;;;;26.10;16.30;;;;;;;;;;10275931;28;20069;-54
2022/02/23 22:47:04;;;;;;;29.38;17.83;;;;;;;;;;10305258;28;20486;-57
2022/02/23 22:52:02;;;;;;;28.00;18.52;;;;;;;;;;10302564;28;20080;-53
2022/02/23 22:57:01;;;;;;;22.05;13.35;;;;;;;;;;10318867;28;20076;-54
2022/02/23 23:01:59;;;;;;;17.35;11.70;;;;;;;;;;10320075;28;20064;-56
2022/02/23 23:06:59;;;;;;;21.05;13.05;;;;;;;;;;10305619;28;20069;-52
2022/02/23 23:11:57;;;;;;;17.48;12.02;;;;;;;;;;10300881;28;20051;-54
2022/02/23 23:16:56;;;;;;;19.30;12.32;;;;;;;;;;10319522;28;20096;-52
2022/02/23 23:21:54;;;;;;;33.55;23.73;;;;;;;;;;10319334;28;20197;-55
2022/02/23 23:26:54;;;;;;;34.33;24.52;;;;;;;;;;10305853;28;20077;-56
2022/02/23 23:31:52;;;;;;;17.52;11.30;;;;;;;;;;10278692;28;20510;-56
2022/02/23 23:36:51;;;;;;;25.88;16.88;;;;;;;;;;10279890;28;20074;-58
2022/02/23 23:41:49;;;;;;;19.73;12.23;;;;;;;;;;10279609;28;20071;-56
2022/02/23 23:46:49;;;;;;;14.80;11.32;;;;;;;;;;10273588;28;20491;-55
2022/02/23 23:51:47;;;;;;;14.93;10.43;;;;;;;;;;10299837;28;20064;-55
2022/02/23 23:56:46;;;;;;;14.00;11.60;;;;;;;;;;10317613;28;20064;-54
